Time;durP1;ratioP1;P1;durP2;ratioP2;P2;SDS_P1;SDS_P2;PMS_P1;PMS_P2;Temp;Humidity;BMP_temperature;BMP_pressure;BME280_temperature;BME280_humidity;BME280_pressure;Samples;Min_cycle;Max_cycle;Signal;HPM_P1;HPM_P2
2023/11/07 00:00:26;;;;;;;1999.90;999.90;;;;;;;8.55;81.46;96747.94;5155106;27;20087;-62
2023/11/07 00:02:54;;;;;;;1999.90;999.90;;;;;;;8.59;81.28;96747.81;5155156;27;20095;-63
2023/11/07 00:05:22;;;;;;;1999.90;999.90;;;;;;;8.60;81.29;96748.66;5155024;27;20038;-61
2023/11/07 00:07:49;;;;;;;1999.90;999.90;;;;;;;8.58;80.40;96751.31;5154947;27;20098;-62
2023/11/07 00:10:16;;;;;;;1999.90;999.90;;;;;;;8.58;80.29;96753.91;5154923;27;20081;-61
2023/11/07 00:12:43;;;;;;;1999.90;999.90;;;;;;;8.55;80.52;96755.78;5154852;27;20043;-63
2023/11/07 00:15:11;;;;;;;1999.90;999.90;;;;;;;8.47;80.96;96762.00;5154702;27;20439;-62
2023/11/07 00:17:39;;;;;;;1999.90;999.90;;;;;;;8.41;81.39;96753.47;5154790;27;20038;-63
2023/11/07 00:20:08;;;;;;;1999.90;999.90;;;;;;;8.34;81.23;96753.63;5155128;27;20059;-61
2023/11/07 00:22:35;;;;;;;1999.90;999.90;;;;;;;8.33;81.17;96754.53;5154790;27;20117;-63
2023/11/07 00:25:03;;;;;;;1999.90;999.90;;;;;;;8.32;81.45;96750.22;5154635;27;20043;-64
2023/11/07 00:27:30;;;;;;;1999.90;999.90;;;;;;;8.27;82.13;96752.09;5154766;27;20058;-61
2023/11/07 00:29:58;;;;;;;1999.90;999.90;;;;;;;8.27;82.10;96751.22;5154812;27;20096;-62
2023/11/07 00:32:25;;;;;;;1999.90;999.90;;;;;;;8.27;81.88;96757.28;5154646;27;20472;-63
2023/11/07 00:34:53;;;;;;;1999.90;999.90;;;;;;;8.27;82.20;96752.09;5154549;27;20049;-63
2023/11/07 00:37:20;;;;;;;1999.90;999.90;;;;;;;8.25;82.63;96751.25;5154626;27;20039;-62
2023/11/07 00:39:47;;;;;;;1999.90;999.90;;;;;;;8.23;82.91;96753.06;5154562;27;20055;-62
2023/11/07 00:42:15;;;;;;;1999.90;999.90;;;;;;;8.24;83.01;96762.59;5154973;27;20072;-62
2023/11/07 00:44:42;;;;;;;1999.90;999.90;;;;;;;8.26;83.04;96759.94;5158885;27;20094;-63
2023/11/07 00:47:09;;;;;;;1999.90;999.90;;;;;;;8.22;82.67;96765.22;5158798;27;20085;-62
2023/11/07 00:49:36;;;;;;;1999.90;999.90;;;;;;;8.25;82.81;96766.88;5158700;27;20046;-63
2023/11/07 00:52:05;;;;;;;1999.90;999.90;;;;;;;8.17;82.99;96761.91;5158819;27;20047;-62
2023/11/07 00:54:32;;;;;;;1999.90;999.90;;;;;;;8.13;82.99;96760.22;5158565;27;20122;-62
2023/11/07 00:56:59;;;;;;;1999.90;999.90;;;;;;;8.14;83.38;96761.97;5158630;27;20055;-61
2023/11/07 00:59:26;;;;;;;1999.90;999.90;;;;;;;8.11;82.87;96761.16;5158572;27;20049;-63
2023/11/07 01:01:53;;;;;;;1999.90;999.90;;;;;;;8.12;82.92;96766.34;5158600;27;20046;-63
2023/11/07 01:04:21;;;;;;;1999.90;999.90;;;;;;;8.00;83.82;96770.09;5158785;27;20083;-63
2023/11/07 01:06:48;;;;;;;1999.90;999.90;;;;;;;7.91;84.44;96765.97;5158366;27;20129;-63
2023/11/07 01:09:19;;;;;;;1999.90;999.90;;;;;;;7.96;84.64;96766.75;5158529;27;20042;-62
2023/11/07 01:11:46;;;;;;;;;;;;;;;7.95;84.61;96771.97;5159064;27;20046;-60
2023/11/07 01:14:13;;;;;;;1999.90;999.90;;;;;;;7.95;84.83;96761.56;5158162;27;19919;-63
2023/11/07 01:16:40;;;;;;;1999.90;999.90;;;;;;;7.96;84.26;96768.47;5158123;27;20522;-63
2023/11/07 01:19:07;;;;;;;1999.90;999.90;;;;;;;7.99;83.94;96759.72;5158310;27;20507;-63
2023/11/07 01:21:34;;;;;;;1999.90;999.90;;;;;;;7.95;84.19;96761.56;5158040;27;20487;-64
2023/11/07 01:24:01;;;;;;;1999.90;999.90;;;;;;;7.93;84.41;96758.13;5158158;27;20051;-62
2023/11/07 01:26:31;;;;;;;1999.90;999.90;;;;;;;7.89;84.18;96761.72;5158068;27;20442;-62
2023/11/07 01:28:59;;;;;;;1999.90;999.90;;;;;;;7.80;85.03;96761.00;5157786;27;20050;-61
2023/11/07 01:31:26;;;;;;;1999.90;999.90;;;;;;;7.89;84.94;96761.72;5157993;27;20070;-63
2023/11/07 01:33:53;;;;;;;1999.90;999.90;;;;;;;7.95;84.03;96771.97;5157984;27;20050;-64
2023/11/07 01:36:20;;;;;;;1999.90;999.90;;;;;;;7.94;83.34;96773.72;5157830;27;20075;-62
2023/11/07 01:38:47;;;;;;;1999.90;999.90;;;;;;;7.81;83.90;96767.09;5157722;27;20070;-62
2023/11/07 01:41:14;;;;;;;1999.90;999.90;;;;;;;7.77;84.21;96774.09;5157724;27;20051;-64
2023/11/07 01:43:43;;;;;;;1999.90;999.90;;;;;;;7.79;84.45;96782.75;5157914;27;20472;-62
2023/11/07 01:46:10;;;;;;;1999.90;999.90;;;;;;;7.78;84.61;96783.66;5157828;27;20415;-63
2023/11/07 01:48:37;;;;;;;1999.90;999.90;;;;;;;7.66;84.57;96786.53;5157519;27;20399;-64
2023/11/07 01:51:06;;;;;;;1999.90;999.90;;;;;;;7.69;84.80;96786.47;5157528;27;20069;-64
2023/11/07 01:53:34;;;;;;;1999.90;999.90;;;;;;;7.71;84.07;96782.09;5157103;27;20126;-64
2023/11/07 01:56:02;;;;;;;1999.90;999.90;;;;;;;7.65;84.93;96777.00;5157401;27;20062;-63
2023/11/07 01:58:29;;;;;;;1999.90;999.90;;;;;;;7.64;84.98;96781.34;5157416;27;20071;-63
2023/11/07 02:00:58;;;;;;;1999.90;999.90;;;;;;;7.67;84.71;96788.22;5157470;27;20038;-60
2023/11/07 02:03:26;;;;;;;1999.90;999.90;;;;;;;7.66;84.82;96787.38;5157437;27;20042;-62
2023/11/07 02:05:53;;;;;;;1999.90;999.90;;;;;;;7.63;85.03;96789.19;5157241;27;20039;-63
2023/11/07 02:08:23;;;;;;;1999.90;999.90;;;;;;;7.62;85.40;96790.09;5157291;27;20099;-62
2023/11/07 02:10:50;;;;;;;1999.90;999.90;;;;;;;7.59;84.89;96783.22;5157261;27;20066;-63
2023/11/07 02:13:17;;;;;;;1999.90;999.90;;;;;;;7.58;85.73;96795.38;5157119;27;20108;-64
2023/11/07 02:15:44;;;;;;;1999.90;999.90;;;;;;;7.58;86.20;96802.31;5157016;27;20450;-64
2023/11/07 02:18:13;;;;;;;1999.90;999.90;;;;;;;7.59;85.96;96810.09;5157031;27;20047;-62
2023/11/07 02:20:41;;;;;;;1999.90;999.90;;;;;;;7.58;85.86;96810.13;5156979;27;20047;-62
2023/11/07 02:23:10;;;;;;;1999.90;999.90;;;;;;;7.54;85.92;96813.69;5156917;27;20104;-63
2023/11/07 02:25:39;;;;;;;1999.90;999.90;;;;;;;7.56;86.06;96810.16;5157005;27;20075;-64
2023/11/07 02:28:07;;;;;;;1999.90;999.90;;;;;;;7.53;86.09;96822.41;5156766;27;20038;-62
2023/11/07 02:30:34;;;;;;;1999.90;999.90;;;;;;;7.49;86.13;96818.97;5157015;27;20053;-62
2023/11/07 02:33:04;;;;;;;1999.90;999.90;;;;;;;7.48;86.09;96813.81;5156764;27;20085;-62
2023/11/07 02:35:32;;;;;;;1999.90;999.90;;;;;;;7.46;86.83;96813.84;5156632;27;20514;-62
2023/11/07 02:38:00;;;;;;;1999.90;999.90;;;;;;;7.47;86.57;96820.78;5156701;27;20053;-64
2023/11/07 02:40:27;;;;;;;1999.90;999.90;;;;;;;7.46;86.09;96827.72;5156232;27;20501;-62
2023/11/07 02:42:55;;;;;;;1999.90;999.90;;;;;;;7.44;85.87;96824.28;5156524;27;20457;-63
2023/11/07 02:45:22;;;;;;;1999.90;999.90;;;;;;;7.46;86.53;96830.31;5156433;27;20057;-63
2023/11/07 02:47:50;;;;;;;1999.90;999.90;;;;;;;7.45;86.15;96831.22;5156486;27;20244;-64
2023/11/07 02:50:19;;;;;;;1999.90;999.90;;;;;;;7.48;85.73;96824.22;5156272;27;20054;-62
2023/11/07 02:52:45;;;;;;;1999.90;999.90;;;;;;;7.50;85.67;96825.06;5156574;27;20043;-64
2023/11/07 02:55:13;;;;;;;1999.90;999.90;;;;;;;7.46;85.63;96819.03;5156348;27;20065;-64
2023/11/07 02:57:39;;;;;;;1999.90;999.90;;;;;;;7.45;85.29;96818.22;5156527;27;20122;-64
2023/11/07 03:00:10;;;;;;;1999.90;999.90;;;;;;;7.44;85.63;96831.25;5156276;27;20125;-64
2023/11/07 03:02:37;;;;;;;1999.90;999.90;;;;;;;7.37;85.91;96827.06;5156233;27;20046;-63
2023/11/07 03:05:05;;;;;;;1999.90;999.90;;;;;;;7.37;86.06;96832.28;5155482;27;20082;-63
2023/11/07 03:07:32;;;;;;;1999.90;999.90;;;;;;;7.19;86.82;96834.34;5155960;27;20059;-62
2023/11/07 03:10:00;;;;;;;1999.90;999.90;;;;;;;7.08;89.08;96830.19;5156137;27;20043;-62
2023/11/07 03:12:28;;;;;;;1999.90;999.90;;;;;;;7.08;88.64;96831.97;5156042;27;20057;-64
2023/11/07 03:14:56;;;;;;;1999.90;999.90;;;;;;;7.14;88.12;96837.06;5155932;27;20074;-63
2023/11/07 03:17:25;;;;;;;1999.90;999.90;;;;;;;7.14;87.52;96834.44;5155766;27;20138;-63
2023/11/07 03:19:53;;;;;;;1999.90;999.90;;;;;;;7.18;87.51;96835.22;5155746;27;20058;-62
2023/11/07 03:22:20;;;;;;;1999.90;999.90;;;;;;;7.20;87.66;96829.09;5155813;27;20073;-64
2023/11/07 03:24:48;;;;;;;1999.90;999.90;;;;;;;7.25;87.59;96831.63;5155801;27;20121;-64
2023/11/07 03:27:15;;;;;;;1999.90;999.90;;;;;;;7.26;87.61;96830.75;5155681;27;20042;-63
2023/11/07 03:29:43;;;;;;;1999.90;999.90;;;;;;;7.22;87.82;96828.22;5155533;27;20053;-63
2023/11/07 03:32:11;;;;;;;1999.90;999.90;;;;;;;7.22;87.53;96830.84;5155563;27;20122;-62
2023/11/07 03:34:39;;;;;;;1999.90;999.90;;;;;;;7.22;87.06;96830.84;5155502;27;20523;-63
2023/11/07 03:37:07;;;;;;;1999.90;999.90;;;;;;;7.24;86.86;96831.66;5155830;27;20074;-62
2023/11/07 03:39:34;;;;;;;1999.90;999.90;;;;;;;7.24;86.66;96835.13;5155523;27;20125;-62
2023/11/07 03:42:02;;;;;;;1999.90;999.90;;;;;;;7.22;87.00;96829.06;5155323;27;20051;-61
2023/11/07 03:44:29;;;;;;;1999.90;999.90;;;;;;;7.24;88.29;96832.50;5155317;27;20495;-61
2023/11/07 03:46:56;;;;;;;1999.90;999.90;;;;;;;7.28;88.06;96828.97;5155415;27;20074;-61
2023/11/07 03:49:23;;;;;;;1999.90;999.90;;;;;;;7.22;88.04;96836.03;5155289;27;20130;-63
2023/11/07 03:51:52;;;;;;;1999.90;999.90;;;;;;;7.08;88.53;96838.00;5155112;27;20099;-62
2023/11/07 03:54:19;;;;;;;1999.90;999.90;;;;;;;7.15;88.76;96849.16;5155157;27;20544;-64
2023/11/07 03:56:48;;;;;;;1999.90;999.90;;;;;;;7.15;88.05;96845.69;5155282;27;20046;-64
2023/11/07 03:59:16;;;;;;;1999.90;999.90;;;;;;;7.14;87.62;96851.81;5155022;27;20054;-63
2023/11/07 04:01:43;;;;;;;1999.90;999.90;;;;;;;7.10;88.29;96844.94;5154925;27;20483;-64
2023/11/07 04:04:10;;;;;;;1999.90;999.90;;;;;;;7.05;88.89;96843.25;5155138;27;20054;-64
2023/11/07 04:06:38;;;;;;;1999.90;999.90;;;;;;;7.05;88.54;96843.25;5155130;27;20051;-63
2023/11/07 04:09:07;;;;;;;1999.90;999.90;;;;;;;7.09;88.77;96841.47;5155021;27;20074;-62
2023/11/07 04:11:34;;;;;;;1999.90;999.90;;;;;;;7.12;88.45;96848.34;5154824;27;20042;-61
2023/11/07 04:14:03;;;;;;;1999.90;999.90;;;;;;;7.12;88.67;96840.56;5154836;27;20095;-65
2023/11/07 04:16:31;;;;;;;1999.90;999.90;;;;;;;7.08;88.74;96847.56;5154656;27;20137;-66
2023/11/07 04:19:00;;;;;;;1999.90;999.90;;;;;;;7.06;88.84;96845.00;5154889;27;20119;-61
2023/11/07 04:21:27;;;;;;;1999.90;999.90;;;;;;;7.05;88.42;96852.84;5154760;27;20047;-63
2023/11/07 04:23:54;;;;;;;1999.90;999.90;;;;;;;7.02;88.51;96855.50;5154685;27;20408;-64
2023/11/07 04:26:23;;;;;;;1999.90;999.90;;;;;;;7.03;88.71;96862.41;5154862;27;20039;-62
2023/11/07 04:28:51;;;;;;;1999.90;999.90;;;;;;;7.02;88.80;96871.09;5154750;27;20133;-62
2023/11/07 04:31:19;;;;;;;1999.90;999.90;;;;;;;7.01;88.39;96862.44;5154560;27;20118;-63
2023/11/07 04:33:46;;;;;;;1999.90;999.90;;;;;;;7.03;88.52;96859.78;5154694;27;20055;-62
2023/11/07 04:36:16;;;;;;;1999.90;999.90;;;;;;;6.96;88.81;96869.47;5154529;27;20057;-64
2023/11/07 04:38:43;;;;;;;1999.90;999.90;;;;;;;6.97;89.59;96873.78;5154776;27;20100;-63
2023/11/07 04:41:12;;;;;;;1999.90;999.90;;;;;;;6.99;89.26;96877.22;5154438;27;20058;-62
2023/11/07 04:43:44;;;;;;;1999.90;999.90;;;;;;;7.00;89.15;96876.31;5154524;27;20125;-65
2023/11/07 04:46:15;;;;;;;1999.90;999.90;;;;;;;6.92;89.70;96873.84;5154631;27;20042;-64
2023/11/07 04:48:42;;;;;;;1999.90;999.90;;;;;;;6.94;90.11;96879.03;5154534;27;20046;-61
2023/11/07 04:51:11;;;;;;;1999.90;999.90;;;;;;;6.89;89.78;96876.50;5154518;27;20046;-63
2023/11/07 04:53:39;;;;;;;1999.90;999.90;;;;;;;6.90;89.72;96873.06;5154468;27;20078;-62
2023/11/07 04:56:08;;;;;;;1999.90;999.90;;;;;;;6.94;89.78;96876.44;5154403;27;20552;-64
2023/11/07 04:58:36;;;;;;;1999.90;999.90;;;;;;;6.94;89.47;96879.91;5154294;27;20046;-63
2023/11/07 05:01:07;;;;;;;1999.90;999.90;;;;;;;6.97;89.59;96878.97;5154334;27;20092;-64
2023/11/07 05:03:34;;;;;;;;;;;;;;;6.99;89.46;96876.34;5154856;27;20054;-64
2023/11/07 05:06:02;;;;;;;1999.90;999.90;;;;;;;6.98;89.47;96883.28;5154453;27;19930;-63
2023/11/07 05:08:30;;;;;;;1999.90;999.90;;;;;;;7.02;89.26;96886.69;5154413;27;20047;-62
2023/11/07 05:10:58;;;;;;;1999.90;999.90;;;;;;;7.02;89.83;96887.56;5154412;27;20054;-63
2023/11/07 05:13:27;;;;;;;1999.90;999.90;;;;;;;7.08;89.55;96895.25;5154584;27;20039;-63
2023/11/07 05:15:56;;;;;;;1999.90;999.90;;;;;;;7.10;89.46;96899.59;5154198;27;20043;-62
2023/11/07 05:18:25;;;;;;;1999.90;999.90;;;;;;;7.16;89.57;96892.50;5154334;27;20384;-62
2023/11/07 05:20:53;;;;;;;1999.90;999.90;;;;;;;7.17;89.41;96901.19;5154377;27;20039;-62
2023/11/07 05:23:22;;;;;;;1999.90;999.90;;;;;;;7.19;89.67;96908.06;5154245;27;20400;-61
2023/11/07 05:25:50;;;;;;;1999.90;999.90;;;;;;;7.27;89.67;96914.84;5154312;27;20083;-62
2023/11/07 05:28:17;;;;;;;1999.90;999.90;;;;;;;7.32;89.52;96916.47;5154362;27;20381;-63
2023/11/07 05:30:44;;;;;;;1999.90;999.90;;;;;;;7.36;89.56;96919.03;5157882;27;20095;-62
2023/11/07 05:33:14;;;;;;;1999.90;999.90;;;;;;;7.41;89.59;96925.84;5157897;27;20433;-63
2023/11/07 05:35:44;;;;;;;1999.90;999.90;;;;;;;7.52;89.17;96927.41;5157854;27;20070;-62
2023/11/07 05:38:14;;;;;;;1999.90;999.90;;;;;;;7.60;88.68;96935.94;5157775;27;20453;-63
2023/11/07 05:40:42;;;;;;;1999.90;999.90;;;;;;;7.98;90.28;96928.22;5157649;27;20043;-62
2023/11/07 05:43:09;;;;;;;1999.90;999.90;;;;;;;9.17;85.92;96939.38;5157765;27;20142;-63
2023/11/07 05:45:40;;;;;;;1999.90;999.90;;;;;;;10.59;78.24;96937.13;5157420;27;20039;-63
2023/11/07 05:48:07;;;;;;;1999.90;999.90;;;;;;;11.97;71.65;96944.69;5157649;27;20039;-62
2023/11/07 05:50:35;;;;;;;1999.90;999.90;;;;;;;13.44;66.16;96954.66;5157867;27;20050;-64
2023/11/07 05:53:05;;;;;;;1999.90;999.90;;;;;;;14.84;60.29;96957.22;5157525;27;20043;-63
2023/11/07 05:55:32;;;;;;;1999.90;999.90;;;;;;;16.11;55.15;96947.31;5157615;27;20068;-63
2023/11/07 05:58:03;;;;;;;1999.90;999.90;;;;;;;17.32;52.07;96953.84;5157345;27;20055;-64
2023/11/07 06:00:33;;;;;;;1999.90;999.90;;;;;;;18.54;49.33;96955.31;5157341;27;20057;-64
2023/11/07 06:03:02;;;;;;;1999.90;999.90;;;;;;;19.67;46.24;96954.19;5157361;27;20047;-63
2023/11/07 06:05:29;;;;;;;1999.90;999.90;;;;;;;20.75;43.95;96949.38;5157369;27;20617;-64
2023/11/07 06:07:57;;;;;;;1999.90;999.90;;;;;;;21.70;41.24;96956.50;5157219;27;20047;-63
2023/11/07 06:10:27;;;;;;;1999.90;999.90;;;;;;;22.62;38.90;96961.03;5157277;27;20042;-62
2023/11/07 06:12:54;;;;;;;1999.90;999.90;;;;;;;23.33;37.63;96952.56;5157466;27;20159;-63
2023/11/07 06:15:22;;;;;;;1999.90;999.90;;;;;;;24.03;36.23;96961.03;5157089;27;20054;-63
2023/11/07 06:17:49;;;;;;;1999.90;999.90;;;;;;;24.73;35.54;96958.50;5157256;27;20051;-63
2023/11/07 06:20:21;;;;;;;1999.90;999.90;;;;;;;25.42;34.16;96964.91;5157014;27;20078;-61
2023/11/07 06:22:48;;;;;;;1999.90;999.90;;;;;;;26.01;33.48;96967.50;5156880;27;20050;-64
2023/11/07 06:25:16;;;;;;;1999.90;999.90;;;;;;;26.68;32.12;96976.41;5156916;27;20058;-65
2023/11/07 06:27:45;;;;;;;74.57;70.25;;;;;;;27.30;30.95;96970.34;5157039;27;20130;-62
2023/11/07 06:30:12;;;;;;;71.93;67.80;;;;;;;27.87;30.44;96965.63;5156804;27;20550;-64
2023/11/07 06:32:40;;;;;;;71.68;67.55;;;;;;;28.44;29.99;96968.81;5156604;27;20421;-64
2023/11/07 06:35:08;;;;;;;72.97;68.38;;;;;;;28.97;28.93;96972.22;5156724;27;20092;-64
2023/11/07 06:37:36;;;;;;;82.88;78.28;;;;;;;29.41;28.56;96975.66;5156719;27;20052;-63
2023/11/07 06:40:07;;;;;;;68.47;64.57;;;;;;;29.85;27.84;96976.31;5155220;27;20046;-63
2023/11/07 06:42:35;;;;;;;72.22;67.93;;;;;;;30.15;27.21;96976.59;5156531;27;20054;-64
2023/11/07 06:45:05;;;;;;;65.22;61.28;;;;;;;30.50;26.66;96981.72;5156668;27;20049;-60
2023/11/07 06:47:32;;;;;;;63.78;59.50;;;;;;;30.88;26.31;96983.78;5156403;27;20042;-62
2023/11/07 06:50:01;;;;;;;57.35;53.25;;;;;;;31.23;24.67;96991.50;5156315;27;20408;-64
2023/11/07 06:52:28;;;;;;;61.25;57.72;;;;;;;31.26;24.60;96989.28;5156741;27;20057;-65
2023/11/07 06:54:55;;;;;;;47.22;44.40;;;;;;;31.48;24.57;97000.28;5156410;27;20089;-66
2023/11/07 06:57:22;;;;;;;45.05;42.35;;;;;;;31.95;24.59;96991.31;5156136;27;20559;-63
2023/11/07 06:59:49;;;;;;;40.40;38.00;;;;;;;32.32;24.67;96994.97;5156270;27;20121;-63
2023/11/07 07:02:17;;;;;;;36.28;33.97;;;;;;;32.75;23.96;96990.78;5156403;27;20081;-62
2023/11/07 07:04:45;;;;;;;31.15;29.13;;;;;;;33.10;23.99;96984.72;5156153;27;20078;-63
2023/11/07 07:07:13;;;;;;;29.05;26.90;;;;;;;33.32;22.98;96990.19;5155932;27;20488;-62
2023/11/07 07:09:41;;;;;;;28.27;26.50;;;;;;;33.55;22.85;96991.84;5156297;27;20488;-63
2023/11/07 07:12:08;;;;;;;30.73;28.48;;;;;;;33.74;22.36;96993.91;5156118;27;20043;-65
2023/11/07 07:14:35;;;;;;;29.20;26.80;;;;;;;33.29;21.94;96994.13;5155970;27;20039;-64
2023/11/07 07:17:02;;;;;;;28.52;26.30;;;;;;;33.63;22.76;96991.75;5155922;27;20042;-61
2023/11/07 07:19:31;;;;;;;25.00;23.48;;;;;;;34.00;21.92;96989.75;5155907;27;20054;-63
2023/11/07 07:21:59;;;;;;;28.20;25.60;;;;;;;34.06;21.53;96992.69;5155876;27;20117;-62
2023/11/07 07:24:27;;;;;;;25.48;23.73;;;;;;;34.12;21.73;96984.63;5155756;27;20126;-63
2023/11/07 07:26:58;;;;;;;26.23;24.25;;;;;;;34.23;20.67;96983.25;5155774;27;20070;-62
2023/11/07 07:29:26;;;;;;;24.98;23.05;;;;;;;34.38;21.15;96982.28;5155613;27;20058;-64
2023/11/07 07:31:53;;;;;;;25.90;23.88;;;;;;;34.58;21.07;96981.53;5155919;27;20125;-65
2023/11/07 07:34:21;;;;;;;23.88;22.17;;;;;;;34.28;20.84;96978.03;5155833;27;20461;-64
2023/11/07 07:36:50;;;;;;;23.90;22.20;;;;;;;34.03;21.08;96981.22;5155334;27;20050;-65
2023/11/07 07:39:28;;;;;;;24.08;22.20;;;;;;;34.38;20.98;96980.41;5155559;27;20664;-64
2023/11/07 07:41:57;;;;;;;23.77;21.98;;;;;;;34.05;21.21;96981.00;5155464;27;20055;-63
2023/11/07 07:44:25;;;;;;;24.00;22.30;;;;;;;34.15;20.64;96986.09;5155486;27;20058;-61
2023/11/07 07:46:53;;;;;;;24.13;22.52;;;;;;;33.97;21.37;96983.84;5155319;27;20504;-62
2023/11/07 07:49:23;;;;;;;22.73;21.02;;;;;;;33.64;21.59;96982.56;5155485;27;20407;-62
2023/11/07 07:51:54;;;;;;;25.50;23.90;;;;;;;33.36;21.48;96978.75;5155103;27;20126;-63
2023/11/07 07:54:22;;;;;;;24.65;22.85;;;;;;;32.58;22.49;96971.19;5155130;27;20057;-65
2023/11/07 07:56:50;;;;;;;24.15;22.55;;;;;;;32.07;23.77;96970.06;5155149;27;20126;-64
2023/11/07 07:59:22;;;;;;;25.20;23.15;;;;;;;31.14;24.42;96967.25;5155019;27;20058;-64
2023/11/07 08:01:55;;;;;;;26.00;24.35;;;;;;;29.77;26.37;96961.81;5155064;27;20047;-63
2023/11/07 08:04:23;;;;;;;24.75;22.77;;;;;;;29.14;26.72;96958.78;5154930;27;20053;-62
2023/11/07 08:06:52;;;;;;;25.13;23.25;;;;;;;28.05;28.03;96957.50;5154976;27;20054;-63
2023/11/07 08:09:19;;;;;;;31.48;29.27;;;;;;;27.28;27.52;96948.22;5155077;27;20091;-64
2023/11/07 08:11:48;;;;;;;27.95;26.20;;;;;;;25.91;29.15;96956.81;5154980;27;20051;-61
2023/11/07 08:14:15;;;;;;;26.42;24.63;;;;;;;25.09;30.95;96944.63;5154997;27;20492;-64
2023/11/07 08:16:43;;;;;;;27.50;25.60;;;;;;;24.49;31.69;96961.53;5154894;27;20047;-64
2023/11/07 08:19:10;;;;;;;32.70;30.10;;;;;;;23.76;32.83;96955.28;5154669;27;20042;-63
2023/11/07 08:21:38;;;;;;;37.28;34.75;;;;;;;23.00;35.03;96957.09;5154876;27;20057;-61
2023/11/07 08:24:08;;;;;;;39.25;36.47;;;;;;;22.29;36.18;96948.47;5154927;27;20484;-65
2023/11/07 08:26:37;;;;;;;45.85;42.67;;;;;;;21.89;37.13;96957.78;5154808;27;20117;-64
2023/11/07 08:29:06;;;;;;;55.78;51.72;;;;;;;21.63;38.49;96962.41;5154818;27;20051;-64
2023/11/07 08:31:33;;;;;;;53.55;49.97;;;;;;;21.38;39.09;96953.66;5154711;27;20125;-62
2023/11/07 08:34:00;;;;;;;56.45;52.50;;;;;;;21.20;39.49;96954.09;5154683;27;20074;-61
2023/11/07 08:36:27;;;;;;;53.03;49.67;;;;;;;21.04;39.95;96949.91;5154674;27;20043;-64
2023/11/07 08:38:54;;;;;;;47.22;43.95;;;;;;;21.10;41.12;96963.72;5154618;27;20055;-63
2023/11/07 08:41:23;;;;;;;50.03;46.72;;;;;;;21.26;40.66;96958.09;5154541;27;20046;-65
2023/11/07 08:43:51;;;;;;;50.67;47.00;;;;;;;21.51;40.48;96962.41;5154557;27;20050;-62
2023/11/07 08:46:19;;;;;;;53.75;50.10;;;;;;;21.69;40.39;96959.28;5154633;27;20039;-62
2023/11/07 08:48:46;;;;;;;46.50;43.63;;;;;;;21.76;40.22;96952.56;5154563;27;20050;-65
2023/11/07 08:51:14;;;;;;;48.95;45.90;;;;;;;21.91;39.40;96950.50;5154536;27;20125;-65
2023/11/07 08:53:43;;;;;;;48.05;44.75;;;;;;;22.08;40.00;96954.53;5154492;27;20480;-65
2023/11/07 08:56:10;;;;;;;48.10;44.50;;;;;;;22.07;40.43;96959.97;5154459;27;20047;-65
2023/11/07 08:58:38;;;;;;;55.65;51.00;;;;;;;21.92;41.62;96956.69;5154379;27;20099;-66
2023/11/07 09:01:06;;;;;;;52.95;49.55;;;;;;;22.02;41.42;96954.16;5154490;27;20143;-64
2023/11/07 09:03:37;;;;;;;54.30;50.65;;;;;;;22.24;42.57;96955.97;5155098;27;20051;-64
2023/11/07 09:06:05;;;;;;;57.63;52.90;;;;;;;22.38;44.09;96962.88;5158458;27;20070;-65
2023/11/07 09:08:32;;;;;;;62.05;57.13;;;;;;;22.41;44.04;96964.44;5158389;27;20043;-65
2023/11/07 09:10:59;;;;;;;61.03;56.05;;;;;;;22.12;44.93;96959.63;5158387;27;20078;-64
2023/11/07 09:13:27;;;;;;;65.65;60.20;;;;;;;22.19;46.55;96964.31;5158352;27;20051;-66
2023/11/07 09:15:58;;;;;;;63.10;57.50;;;;;;;22.27;46.91;96954.91;5158320;27;20051;-63
2023/11/07 09:18:26;;;;;;;62.13;56.50;;;;;;;22.31;47.84;96957.16;5158286;27;20074;-63
2023/11/07 09:20:53;;;;;;;66.75;61.25;;;;;;;22.36;47.69;96951.47;5158256;27;20054;-62
2023/11/07 09:23:20;;;;;;;63.92;58.35;;;;;;;22.57;47.95;96954.28;5158050;27;20043;-66
2023/11/07 09:25:47;;;;;;;62.35;57.17;;;;;;;22.83;46.88;96932.66;5158286;27;20074;-65
2023/11/07 09:28:14;;;;;;;62.97;56.85;;;;;;;23.00;45.64;96938.41;5158148;27;20071;-64
2023/11/07 09:30:41;;;;;;;56.42;52.20;;;;;;;22.99;46.13;96935.88;5157986;27;20488;-63
2023/11/07 09:33:10;;;;;;;58.92;53.70;;;;;;;22.96;45.32;96937.81;5157839;27;20042;-64
2023/11/07 09:35:37;;;;;;;61.80;57.13;;;;;;;22.90;45.44;96929.50;5157969;27;20047;-63
2023/11/07 09:38:04;;;;;;;60.17;55.80;;;;;;;22.80;45.20;96922.25;5157758;27;20047;-64
2023/11/07 09:40:32;;;;;;;67.97;62.63;;;;;;;22.59;45.70;96924.84;5157555;27;20082;-63
2023/11/07 09:43:01;;;;;;;71.10;65.80;;;;;;;22.37;46.19;96912.38;5157834;27;20046;-64
2023/11/07 09:45:37;;;;;;;79.53;73.23;;;;;;;22.19;47.94;96915.53;5157694;27;20655;-64
2023/11/07 09:48:09;;;;;;;75.05;68.85;;;;;;;22.11;48.41;96907.31;5157925;27;20278;-62
2023/11/07 09:50:43;;;;;;;73.65;67.82;;;;;;;22.05;47.79;96901.50;5157615;27;20047;-64
2023/11/07 09:53:14;;;;;;;74.32;68.60;;;;;;;21.96;49.72;96908.41;5157493;27;20094;-63
2023/11/07 09:55:41;;;;;;;74.55;69.15;;;;;;;21.92;49.40;96898.97;5157538;27;20074;-62
2023/11/07 09:58:11;;;;;;;73.28;67.28;;;;;;;21.83;49.40;96897.84;5157317;27;20415;-64
2023/11/07 10:00:38;;;;;;;65.97;59.80;;;;;;;21.82;50.00;96892.66;5157364;27;20046;-64
2023/11/07 10:03:06;;;;;;;71.68;64.85;;;;;;;21.76;50.77;96885.19;5157365;27;20079;-62
2023/11/07 10:05:37;;;;;;;70.13;64.70;;;;;;;21.72;52.46;96879.19;5157391;27;20066;-61
2023/11/07 10:08:06;;;;;;;69.72;63.28;;;;;;;21.74;52.06;96876.41;5157339;27;20515;-63
2023/11/07 10:10:34;;;;;;;72.57;66.95;;;;;;;21.64;52.00;96879.78;5157243;27;20566;-62
2023/11/07 10:13:08;;;;;;;69.63;63.70;;;;;;;21.53;52.28;96872.66;5157145;27;20078;-62
2023/11/07 10:15:36;;;;;;;67.95;62.72;;;;;;;21.57;52.17;96867.94;5156895;27;20054;-64
2023/11/07 10:18:08;;;;;;;68.32;63.22;;;;;;;21.67;51.75;96868.91;5157050;27;20049;-62
2023/11/07 10:20:36;;;;;;;68.70;63.70;;;;;;;21.76;51.52;96869.22;5157045;27;20536;-64
2023/11/07 10:23:11;;;;;;;76.72;71.38;;;;;;;21.67;51.38;96852.94;5156966;27;20070;-64
2023/11/07 10:25:38;;;;;;;76.65;69.40;;;;;;;21.83;51.39;96857.09;5156881;27;20095;-64
2023/11/07 10:28:07;;;;;;;77.72;71.47;;;;;;;21.81;50.98;96854.56;5156913;27;20050;-64
2023/11/07 10:30:41;;;;;;;76.18;70.28;;;;;;;21.87;51.05;96852.34;5156933;27;20042;-62
2023/11/07 10:33:09;;;;;;;91.82;84.93;;;;;;;21.86;51.24;96845.34;5156702;27;20083;-63
2023/11/07 10:35:51;;;;;;;82.28;75.15;;;;;;;21.98;50.61;96838.19;5156755;27;20559;-63
2023/11/07 10:38:20;;;;;;;77.07;70.78;;;;;;;22.15;50.03;96834.19;5156737;27;20046;-63
2023/11/07 10:40:48;;;;;;;84.97;78.60;;;;;;;22.17;49.67;96826.91;5156497;27;20078;-63
2023/11/07 10:43:16;;;;;;;84.10;76.85;;;;;;;22.21;49.43;96823.88;5156628;27;20050;-62
2023/11/07 10:45:43;;;;;;;84.35;77.10;;;;;;;22.10;48.38;96823.91;5156669;27;20050;-61
2023/11/07 10:48:12;;;;;;;86.80;80.20;;;;;;;22.01;49.10;96819.31;5156509;27;20122;-61
2023/11/07 10:50:43;;;;;;;91.95;85.45;;;;;;;21.93;48.93;96822.59;5156410;27;20046;-62
2023/11/07 10:53:11;;;;;;;;;;;;;;;21.76;49.51;96816.78;5156912;27;20439;-63
2023/11/07 10:55:39;;;;;;;1999.90;999.90;;;;;;;21.65;49.20;96828.28;5156613;27;19923;-63
2023/11/07 10:58:13;;;;;;;1999.90;999.90;;;;;;;21.51;50.71;96826.69;5156252;27;20053;-64
2023/11/07 11:00:40;;;;;;;1999.90;999.90;;;;;;;21.54;50.11;96828.25;5156524;27;20052;-64
2023/11/07 11:03:13;;;;;;;1999.90;999.90;;;;;;;21.31;50.67;96821.09;5156173;27;20045;-62
2023/11/07 11:05:43;;;;;;;1999.90;999.90;;;;;;;21.22;51.08;96816.50;5156066;27;20082;-64
2023/11/07 11:08:11;;;;;;;1999.90;999.90;;;;;;;21.03;51.14;96804.63;5156158;27;20050;-64
2023/11/07 11:10:41;;;;;;;1999.90;999.90;;;;;;;21.10;51.66;96810.31;5155987;27;20039;-64